Time;durP1;ratioP1;P1;durP2;ratioP2;P2;SDS_P1;SDS_P2;PMS_P1;PMS_P2;Temp;Humidity;BMP_temperature;BMP_pressure;BME280_temperature;BME280_humidity;BME280_pressure;Samples;Min_cycle;Max_cycle;Signal;HPM_P1;HPM_P2
2023/02/24 00:00:32;;;;;;;12.63;1.27;;;4.80;99.90;;;;;;4860653;29;20234;-60
2023/02/24 00:03:09;;;;;;;8.57;1.80;;;4.80;99.90;;;;;;4854360;29;20345;-59
2023/02/24 00:05:43;;;;;;;7.30;1.17;;;4.80;99.90;;;;;;4845142;29;20646;-59
2023/02/24 00:08:13;;;;;;;5.87;1.30;;;4.80;99.90;;;;;;4863857;29;20230;-59
2023/02/24 00:10:41;;;;;;;7.33;1.50;;;4.80;99.90;;;;;;4863813;29;20231;-59
2023/02/24 00:13:11;;;;;;;6.53;1.17;;;4.80;99.90;;;;;;4853189;29;20478;-59
2023/02/24 00:15:40;;;;;;;8.97;1.70;;;4.70;99.90;;;;;;4844777;29;20536;-60
2023/02/24 00:18:09;;;;;;;4.70;1.50;;;4.70;99.90;;;;;;4845033;29;20479;-60
2023/02/24 00:20:37;;;;;;;9.03;1.70;;;4.70;99.90;;;;;;4843097;29;20842;-59
2023/02/24 00:23:05;;;;;;;8.27;1.27;;;4.70;99.90;;;;;;4847300;29;20317;-59
2023/02/24 00:25:33;;;;;;;9.87;1.73;;;4.70;99.90;;;;;;4855285;29;20535;-60
2023/02/24 00:28:01;;;;;;;8.07;1.30;;;4.70;99.90;;;;;;4863476;29;20244;-59
2023/02/24 00:30:31;;;;;;;8.57;1.83;;;4.70;99.90;;;;;;4845928;29;20483;-59
2023/02/24 00:33:02;;;;;;;6.47;1.30;;;4.70;99.90;;;;;;4848746;29;20459;-60
2023/02/24 00:35:31;;;;;;;7.23;2.57;;;4.70;99.90;;;;;;4859821;29;20223;-59
2023/02/24 00:37:59;;;;;;;6.57;1.43;;;4.70;99.90;;;;;;4862511;29;20498;-59
2023/02/24 00:40:29;;;;;;;7.50;1.87;;;4.70;99.90;;;;;;4847703;29;20837;-59
2023/02/24 00:43:00;;;;;;;7.27;1.37;;;4.70;99.90;;;;;;4844630;29;20467;-59
2023/02/24 00:45:36;;;;;;;9.57;1.77;;;4.70;99.90;;;;;;4844530;29;20927;-59
2023/02/24 00:48:04;;;;;;;5.60;1.30;;;4.70;99.90;;;;;;4843268;29;20331;-59
2023/02/24 00:50:32;;;;;;;7.33;1.10;;;4.80;99.90;;;;;;4836304;29;20246;-59
2023/02/24 00:53:00;;;;;;;8.10;1.53;;;4.70;99.90;;;;;;4852257;29;20473;-59
2023/02/24 00:55:35;;;;;;;8.67;1.20;;;4.70;99.90;;;;;;4853437;29;20511;-59
2023/02/24 00:58:06;;;;;;;7.13;1.40;;;4.70;99.90;;;;;;4861382;29;20527;-59
2023/02/24 01:00:36;;;;;;;6.83;1.30;;;4.80;99.90;;;;;;4845828;29;20884;-60
2023/02/24 01:03:05;;;;;;;7.27;1.40;;;5.00;99.90;;;;;;4826083;29;20479;-59
2023/02/24 01:05:36;;;;;;;5.67;1.10;;;4.90;99.90;;;;;;4825507;29;20487;-59
2023/02/24 01:08:04;;;;;;;6.83;1.47;;;4.80;99.90;;;;;;4829391;29;20968;-59
2023/02/24 01:10:33;;;;;;;5.50;1.37;;;4.80;99.90;;;;;;4827538;29;20485;-60
2023/02/24 01:13:00;;;;;;;8.33;1.87;;;4.70;99.90;;;;;;4825766;29;20461;-60
2023/02/24 01:15:28;;;;;;;9.30;1.40;;;4.70;99.90;;;;;;4825542;29;20471;-59
2023/02/24 01:17:58;;;;;;;7.07;1.40;;;4.70;99.90;;;;;;4825907;29;20567;-59
2023/02/24 01:20:29;;;;;;;12.47;1.97;;;4.70;99.90;;;;;;4818379;29;20487;-59
2023/02/24 01:22:57;;;;;;;5.57;1.60;;;4.70;99.90;;;;;;4834251;29;20826;-59
2023/02/24 01:25:30;;;;;;;6.43;1.50;;;4.80;99.90;;;;;;4836019;29;20494;-60
2023/02/24 01:27:58;;;;;;;8.80;1.70;;;4.80;99.90;;;;;;4843970;29;20995;-60
2023/02/24 01:30:27;;;;;;;8.60;1.40;;;4.80;99.90;;;;;;4828023;29;20550;-59
2023/02/24 01:32:58;;;;;;;4.60;1.47;;;4.70;99.90;;;;;;4824248;29;20512;-59
2023/02/24 01:35:33;;;;;;;6.93;1.40;;;4.70;99.90;;;;;;4824683;29;20541;-59
2023/02/24 01:38:01;;;;;;;10.33;1.40;;;4.70;99.90;;;;;;4842060;29;20642;-59
2023/02/24 01:40:30;;;;;;;7.67;1.13;;;4.70;99.90;;;;;;4828235;29;20275;-59
2023/02/24 01:42:58;;;;;;;5.53;1.20;;;4.70;99.90;;;;;;4825251;29;20236;-59
2023/02/24 01:45:28;;;;;;;8.77;1.27;;;4.60;99.90;;;;;;4823750;29;20481;-59
2023/02/24 01:48:01;;;;;;;9.83;1.60;;;4.60;99.90;;;;;;4820997;29;20481;-59
2023/02/24 01:50:31;;;;;;;7.23;1.40;;;4.60;99.90;;;;;;4814890;29;20495;-59
2023/02/24 01:53:03;;;;;;;7.87;1.23;;;4.60;99.90;;;;;;4834150;29;20485;-59
2023/02/24 01:55:35;;;;;;;7.40;1.47;;;4.60;99.90;;;;;;4829677;29;20477;-59
2023/02/24 01:58:09;;;;;;;8.13;1.37;;;4.60;99.90;;;;;;4823451;29;20483;-59
2023/02/24 02:00:43;;;;;;;9.23;1.57;;;4.60;99.90;;;;;;4824698;29;20240;-59
2023/02/24 02:03:22;;;;;;;6.17;1.67;;;4.60;99.90;;;;;;4823434;29;20516;-60
2023/02/24 02:05:54;;;;;;;5.17;1.10;;;4.60;99.90;;;;;;4826533;29;20544;-59
2023/02/24 02:08:24;;;;;;;8.43;1.40;;;4.60;99.90;;;;;;4839839;29;20246;-60
2023/02/24 02:10:57;;;;;;;4.43;1.10;;;4.60;99.90;;;;;;4841795;29;20927;-59
2023/02/24 02:13:28;;;;;;;6.00;0.87;;;4.60;99.90;;;;;;4843164;29;20476;-59
2023/02/24 02:16:04;;;;;;;7.23;1.20;;;4.60;99.90;;;;;;4841705;29;20480;-59
2023/02/24 02:18:45;;;;;;;8.70;1.30;;;4.60;99.90;;;;;;4834026;29;20980;-59
2023/02/24 02:21:43;;;;;;;7.80;1.37;;;4.60;99.90;;;;;;4823991;29;20484;-59
2023/02/24 02:24:30;;;;;;;6.30;0.90;;;4.50;99.90;;;;;;4836853;29;20480;-59
2023/02/24 02:27:28;;;;;;;4.10;1.10;;;4.50;99.90;;;;;;4841577;29;21045;-59
2023/02/24 02:30:18;;;;;;;8.53;1.50;;;4.60;99.90;;;;;;4824535;29;20473;-59
2023/02/24 02:33:26;;;;;;;7.67;1.73;;;4.50;99.90;;;;;;4821476;29;20488;-59
2023/02/24 02:36:05;;;;;;;6.50;1.27;;;4.60;99.90;;;;;;4822801;29;20499;-60
2023/02/24 02:38:43;;;;;;;6.20;1.33;;;4.60;99.90;;;;;;4841089;29;20476;-59
2023/02/24 02:41:22;;;;;;;6.03;1.20;;;4.60;99.90;;;;;;4842710;29;20831;-59
2023/02/24 02:43:57;;;;;;;7.20;1.53;;;4.60;99.90;;;;;;4842443;29;20475;-59
2023/02/24 02:46:34;;;;;;;9.93;1.40;;;4.60;99.90;;;;;;4842412;29;20488;-60
2023/02/24 02:49:07;;;;;;;5.60;1.17;;;4.60;99.90;;;;;;4830859;29;20476;-59
2023/02/24 02:51:41;;;;;;;6.97;1.40;;;4.50;99.90;;;;;;4823011;29;20482;-60
2023/02/24 02:54:16;;;;;;;8.43;1.30;;;4.50;99.90;;;;;;4837226;29;20981;-60
2023/02/24 02:56:52;;;;;;;5.27;1.03;;;4.50;99.90;;;;;;4840253;29;20491;-59
2023/02/24 02:59:26;;;;;;;11.00;1.43;;;4.50;99.90;;;;;;4825544;29;20590;-59
2023/02/24 03:02:10;;;;;;;5.93;1.23;;;4.50;99.90;;;;;;4831967;29;20522;-59
2023/02/24 03:04:42;;;;;;;5.53;1.20;;;4.50;99.90;;;;;;4840724;29;20475;-59
2023/02/24 03:07:15;;;;;;;4.97;1.40;;;4.60;99.90;;;;;;4852489;29;20491;-59
2023/02/24 03:09:50;;;;;;;7.47;1.10;;;4.50;99.90;;;;;;4843022;29;20570;-59
2023/02/24 03:12:23;;;;;;;3.57;1.20;;;4.60;99.90;;;;;;4840923;29;20490;-59
2023/02/24 03:14:58;;;;;;;6.17;1.33;;;4.70;99.90;;;;;;4840222;29;20500;-60
2023/02/24 03:17:30;;;;;;;4.50;1.23;;;4.60;99.90;;;;;;4822614;29;20495;-59
2023/02/24 03:20:13;;;;;;;3.77;1.13;;;4.60;99.90;;;;;;4827789;29;20475;-59
2023/02/24 03:22:48;;;;;;;8.20;1.20;;;4.70;99.90;;;;;;4847511;29;20580;-59
2023/02/24 03:25:22;;;;;;;3.80;1.10;;;4.60;99.90;;;;;;4852175;29;20835;-60
2023/02/24 03:27:57;;;;;;;7.93;1.40;;;4.50;99.90;;;;;;4843219;29;20497;-60
2023/02/24 03:30:29;;;;;;;2.67;1.00;;;4.50;99.90;;;;;;4858611;29;20486;-59
2023/02/24 03:33:04;;;;;;;6.20;1.27;;;4.50;99.90;;;;;;4845096;29;20867;-59
2023/02/24 03:35:37;;;;;;;9.67;1.90;;;4.50;99.90;;;;;;4839926;29;20490;-60
2023/02/24 03:38:09;;;;;;;7.00;1.23;;;4.50;99.90;;;;;;4844776;29;21024;-59
2023/02/24 03:40:38;;;;;;;7.97;1.23;;;4.50;99.90;;;;;;4859005;29;20482;-59
2023/02/24 03:43:15;;;;;;;6.97;1.03;;;4.50;99.90;;;;;;4858979;29;20591;-60
2023/02/24 03:45:45;;;;;;;6.53;1.60;;;4.50;99.90;;;;;;4854913;29;20482;-59
2023/02/24 03:48:14;;;;;;;5.77;1.10;;;4.40;99.90;;;;;;4828968;29;20538;-59
2023/02/24 03:50:45;;;;;;;13.53;1.70;;;4.40;99.90;;;;;;4832026;29;20570;-59
2023/02/24 03:53:45;;;;;;;4.20;0.93;;;4.40;99.90;;;;;;4844835;29;20484;-60
2023/02/24 03:56:26;;;;;;;5.73;1.20;;;4.40;99.90;;;;;;4846571;29;20871;-59
2023/02/24 03:59:11;;;;;;;3.17;1.00;;;4.40;99.90;;;;;;4840951;29;20925;-59
2023/02/24 04:01:47;;;;;;;6.30;1.10;;;4.30;99.90;;;;;;4839993;29;20537;-60
2023/02/24 04:04:26;;;;;;;6.23;1.27;;;4.40;99.90;;;;;;4840633;29;20571;-60
2023/02/24 04:07:12;;;;;;;3.57;1.00;;;4.30;99.90;;;;;;4847497;29;20537;-59
2023/02/24 04:09:49;;;;;;;4.10;1.17;;;4.30;99.90;;;;;;4855719;29;20509;-59
2023/02/24 04:12:25;;;;;;;4.67;1.27;;;4.30;99.90;;;;;;4860116;29;20463;-60
2023/02/24 04:15:03;;;;;;;7.20;1.97;;;4.40;99.90;;;;;;4858877;29;20482;-59
2023/02/24 04:17:38;;;;;;;3.80;1.17;;;4.30;99.90;;;;;;4851562;29;20526;-59
2023/02/24 04:20:12;;;;;;;5.10;1.30;;;4.40;99.90;;;;;;4840229;29;20479;-59
2023/02/24 04:22:47;;;;;;;5.27;1.20;;;4.40;99.90;;;;;;4840499;29;20547;-59
2023/02/24 04:25:23;;;;;;;6.27;1.23;;;4.40;99.90;;;;;;4852523;29;21049;-59
2023/02/24 04:27:54;;;;;;;5.00;1.07;;;4.40;99.90;;;;;;4851519;29;20502;-59
2023/02/24 04:30:25;;;;;;;7.23;1.10;;;4.40;99.90;;;;;;4843077;29;20472;-59
2023/02/24 04:32:55;;;;;;;6.67;1.53;;;4.40;99.90;;;;;;4843458;29;20506;-59
2023/02/24 04:35:26;;;;;;;5.10;1.00;;;4.40;99.90;;;;;;4843408;29;20475;-59
2023/02/24 04:37:57;;;;;;;6.83;1.07;;;4.40;99.90;;;;;;4853296;29;20476;-60
2023/02/24 04:40:27;;;;;;;4.97;1.20;;;4.30;99.90;;;;;;4861549;29;20524;-59
2023/02/24 04:42:55;;;;;;;7.07;1.30;;;4.30;99.90;;;;;;4863321;29;20486;-59
2023/02/24 04:45:26;;;;;;;6.23;1.00;;;4.30;99.90;;;;;;4862633;29;20979;-60
2023/02/24 04:47:59;;;;;;;6.07;1.13;;;4.30;99.90;;;;;;4853321;29;20498;-59
2023/02/24 04:50:29;;;;;;;5.20;1.20;;;4.40;99.90;;;;;;4844368;29;20242;-60
2023/02/24 04:53:00;;;;;;;8.53;1.50;;;4.40;99.90;;;;;;4853245;29;20487;-59
2023/02/24 04:55:32;;;;;;;7.07;1.23;;;4.40;99.90;;;;;;4854759;29;20566;-59
2023/02/24 04:58:01;;;;;;;5.30;1.40;;;4.40;99.90;;;;;;4853207;29;20847;-59
2023/02/24 05:00:34;;;;;;;7.17;1.33;;;4.40;99.90;;;;;;4843649;29;20575;-60
2023/02/24 05:03:04;;;;;;;5.40;1.70;;;4.40;99.90;;;;;;4844061;29;20498;-59
2023/02/24 05:05:33;;;;;;;7.40;1.90;;;4.40;99.90;;;;;;4843594;29;20472;-59
2023/02/24 05:08:03;;;;;;;7.27;1.83;;;4.40;99.90;;;;;;4855762;29;20847;-59
2023/02/24 05:10:38;;;;;;;5.53;1.30;;;4.40;99.90;;;;;;4862498;29;20469;-60
2023/02/24 05:13:07;;;;;;;9.00;1.80;;;4.40;99.90;;;;;;4862593;29;20856;-59
2023/02/24 05:15:40;;;;;;;7.00;1.57;;;4.40;99.90;;;;;;4862266;29;20474;-60
2023/02/24 05:18:12;;;;;;;6.23;1.43;;;4.40;99.90;;;;;;4852317;29;20532;-59
2023/02/24 05:23:32;;;;;;;7.90;1.37;;;4.40;99.90;;;;;;4856523;29;20978;-59
2023/02/24 05:26:07;;;;;;;4.90;1.40;;;4.40;99.90;;;;;;4854743;29;20486;-59
2023/02/24 05:28:36;;;;;;;4.97;1.40;;;4.40;99.90;;;;;;4848661;29;20495;-59
2023/02/24 05:31:08;;;;;;;5.23;1.17;;;4.40;99.90;;;;;;4845760;29;20491;-60
2023/02/24 05:33:37;;;;;;;5.87;1.40;;;4.40;99.90;;;;;;4848014;29;20491;-59
2023/02/24 05:36:08;;;;;;;4.47;1.30;;;4.40;99.90;;;;;;4843716;29;20491;-59
2023/02/24 05:38:37;;;;;;;4.20;1.20;;;4.40;99.90;;;;;;4858182;29;20987;-60
2023/02/24 05:41:13;;;;;;;6.10;1.33;;;4.40;99.90;;;;;;4861961;29;20478;-59
2023/02/24 05:43:46;;;;;;;8.03;1.50;;;4.40;99.90;;;;;;4860120;29;20850;-59
2023/02/24 05:46:15;;;;;;;6.43;1.67;;;4.30;99.90;;;;;;4833233;29;21002;-60
2023/02/24 05:48:43;;;;;;;7.93;1.50;;;4.30;99.90;;;;;;4843266;29;22394;-59
2023/02/24 05:51:12;;;;;;;7.77;1.67;;;4.20;99.90;;;;;;4843563;29;20466;-59
2023/02/24 05:53:41;;;;;;;5.83;1.50;;;4.30;99.90;;;;;;4851045;29;20994;-59
2023/02/24 05:56:11;;;;;;;7.93;1.30;;;4.20;99.90;;;;;;4848391;29;20830;-59
2023/02/24 05:58:39;;;;;;;6.87;1.50;;;4.10;99.90;;;;;;4843034;29;20970;-60
2023/02/24 06:01:15;;;;;;;5.13;1.50;;;4.10;99.90;;;;;;4840759;29;20483;-60
2023/02/24 06:03:46;;;;;;;4.07;1.33;;;4.10;99.90;;;;;;4843662;29;20510;-59
2023/02/24 06:06:16;;;;;;;6.47;1.20;;;4.10;99.90;;;;;;4848207;29;20493;-59
2023/02/24 06:08:49;;;;;;;6.90;2.20;;;4.10;99.90;;;;;;4861822;29;21108;-59
2023/02/24 06:11:20;;;;;;;8.90;1.83;;;4.00;99.90;;;;;;4858424;29;20478;-59
2023/02/24 06:13:49;;;;;;;6.73;1.43;;;3.90;99.90;;;;;;4843250;29;20583;-59
2023/02/24 06:16:19;;;;;;;7.80;1.50;;;3.90;99.90;;;;;;4843171;29;20468;-60
2023/02/24 06:18:49;;;;;;;5.20;1.77;;;3.90;99.90;;;;;;4842750;29;20520;-59
2023/02/24 06:21:17;;;;;;;4.70;1.37;;;3.90;99.90;;;;;;4840566;29;20481;-59
2023/02/24 06:23:46;;;;;;;6.17;1.80;;;4.00;99.90;;;;;;4837970;29;20840;-60
2023/02/24 06:26:18;;;;;;;6.53;1.77;;;3.90;99.90;;;;;;4849071;29;20540;-60
2023/02/24 06:28:52;;;;;;;5.17;1.50;;;4.00;99.90;;;;;;4837262;29;20508;-59
2023/02/24 06:31:21;;;;;;;4.70;1.20;;;4.00;99.90;;;;;;4831759;29;20570;-59
2023/02/24 06:33:52;;;;;;;7.87;1.83;;;3.90;99.90;;;;;;4842402;29;20489;-59
2023/02/24 06:36:20;;;;;;;6.07;1.67;;;3.90;99.90;;;;;;4843975;29;20562;-59
2023/02/24 06:38:51;;;;;;;7.50;1.80;;;3.90;99.90;;;;;;4838235;29;20521;-58
2023/02/24 06:41:20;;;;;;;6.00;1.50;;;3.90;99.90;;;;;;4829524;29;20964;-59
2023/02/24 06:43:51;;;;;;;9.20;1.93;;;3.90;99.90;;;;;;4833311;29;21097;-59
2023/02/24 06:46:21;;;;;;;5.27;2.00;;;3.90;99.90;;;;;;4834767;29;20486;-58
2023/02/24 06:48:50;;;;;;;6.17;1.87;;;3.80;99.90;;;;;;4853901;29;20501;-59
2023/02/24 06:51:19;;;;;;;3.30;1.67;;;3.80;99.90;;;;;;4856714;29;20486;-59
2023/02/24 06:53:49;;;;;;;9.03;1.90;;;3.90;99.90;;;;;;4858201;29;20904;-59
2023/02/24 06:56:18;;;;;;;10.67;1.60;;;3.90;99.90;;;;;;4850073;29;20506;-58
2023/02/24 06:58:51;;;;;;;6.40;2.07;;;3.90;99.90;;;;;;4861191;29;20538;-59
2023/02/24 07:01:24;;;;;;;7.10;1.77;;;3.90;99.90;;;;;;4852054;29;20586;-58
2023/02/24 07:04:16;;;;;;;5.53;1.73;;;3.90;99.90;;;;;;4841795;29;20472;-59
2023/02/24 07:06:51;;;;;;;4.77;1.83;;;3.90;99.90;;;;;;4857293;29;20546;-59
2023/02/24 07:09:22;;;;;;;8.60;1.70;;;3.80;99.90;;;;;;4862867;29;20833;-58
2023/02/24 07:11:54;;;;;;;8.37;1.67;;;3.80;99.90;;;;;;4861188;29;20486;-58
2023/02/24 07:14:26;;;;;;;6.50;1.40;;;3.80;99.90;;;;;;4860871;29;20485;-59
2023/02/24 07:16:56;;;;;;;5.57;1.83;;;3.80;99.90;;;;;;4860892;29;20565;-59
2023/02/24 07:19:27;;;;;;;3.13;1.77;;;3.80;99.90;;;;;;4860855;29;20469;-59
2023/02/24 07:21:59;;;;;;;7.60;1.77;;;3.80;99.90;;;;;;4843834;29;20482;-59
2023/02/24 07:24:34;;;;;;;9.13;2.17;;;3.80;99.90;;;;;;4857480;29;20987;-59
2023/02/24 07:27:06;;;;;;;5.20;1.67;;;3.90;99.90;;;;;;4845845;29;20517;-59
2023/02/24 07:29:36;;;;;;;5.40;2.00;;;3.90;99.90;;;;;;4846818;29;21111;-59
2023/02/24 07:32:07;;;;;;;6.50;2.00;;;3.80;99.90;;;;;;4841016;29;20490;-65
2023/02/24 07:34:38;;;;;;;6.17;2.07;;;3.80;99.90;;;;;;4838645;29;20547;-65
2023/02/24 07:37:07;;;;;;;6.33;2.07;;;3.80;99.90;;;;;;4850051;29;20502;-65
2023/02/24 07:39:36;;;;;;;7.37;2.07;;;3.80;99.90;;;;;;4860570;29;20825;-65
2023/02/24 07:42:06;;;;;;;9.60;2.20;;;3.80;99.90;;;;;;4828227;29;21120;-64
2023/02/24 07:44:45;;;;;;;5.70;1.80;;;3.80;99.90;;;;;;4822489;29;20497;-65
2023/02/24 07:47:14;;;;;;;7.30;2.00;;;3.70;99.90;;;;;;4823835;29;20551;-65
2023/02/24 07:49:44;;;;;;;7.20;2.33;;;3.80;99.90;;;;;;4823658;29;20548;-64
2023/02/24 07:52:12;;;;;;;5.50;1.97;;;3.70;99.90;;;;;;4851765;29;20580;-64
2023/02/24 07:54:40;;;;;;;5.53;2.10;;;3.80;99.90;;;;;;4852346;29;20477;-64
2023/02/24 07:57:12;;;;;;;4.93;1.70;;;3.80;99.90;;;;;;4833992;29;20495;-64
2023/02/24 07:59:43;;;;;;;2.73;1.50;;;3.70;99.90;;;;;;4832467;29;20563;-64
2023/02/24 08:02:13;;;;;;;5.07;1.60;;;3.70;99.90;;;;;;4832308;29;20492;-64
2023/02/24 08:04:47;;;;;;;8.93;2.10;;;3.70;99.90;;;;;;4843008;29;20532;-64
2023/02/24 08:07:15;;;;;;;6.00;1.77;;;3.70;99.90;;;;;;4840408;29;20838;-64
2023/02/24 08:12:28;;;;;;;5.00;1.80;;;3.70;99.90;;;;;;4834251;29;20479;-64
2023/02/24 08:14:59;;;;;;;5.50;1.93;;;3.70;99.90;;;;;;4841589;29;20490;-64
2023/02/24 08:17:28;;;;;;;4.33;1.97;;;3.70;99.90;;;;;;4838764;29;20996;-64
2023/02/24 08:20:20;;;;;;;5.07;1.60;;;3.70;99.90;;;;;;4834414;29;20472;-64
2023/02/24 08:22:51;;;;;;;5.73;1.90;;;3.70;99.90;;;;;;4837875;29;20480;-64
2023/02/24 08:25:21;;;;;;;4.27;1.67;;;3.70;99.90;;;;;;4840213;29;20474;-64
2023/02/24 08:28:04;;;;;;;4.40;1.90;;;3.70;99.90;;;;;;4835781;29;20480;-64
2023/02/24 08:30:38;;;;;;;7.53;2.03;;;3.70;99.90;;;;;;4837667;29;20471;-64
2023/02/24 08:33:10;;;;;;;5.20;1.70;;;3.70;99.90;;;;;;4844157;29;20488;-64
2023/02/24 08:35:43;;;;;;;6.47;2.20;;;3.70;99.90;;;;;;4836072;29;20475;-64
2023/02/24 08:38:14;;;;;;;3.87;1.57;;;3.70;99.90;;;;;;4843772;29;20557;-64
2023/02/24 08:40:51;;;;;;;4.03;2.07;;;3.80;99.90;;;;;;4834648;29;20482;-64
2023/02/24 08:43:31;;;;;;;7.20;2.10;;;3.80;99.90;;;;;;4834227;29;20467;-64
2023/02/24 08:46:03;;;;;;;6.50;2.83;;;3.80;99.90;;;;;;4837520;29;20492;-64
2023/02/24 08:48:37;;;;;;;5.20;2.40;;;3.70;99.90;;;;;;4854692;29;20495;-64
2023/02/24 08:51:09;;;;;;;4.83;2.23;;;3.80;99.90;;;;;;4847982;29;20854;-64
2023/02/24 08:53:40;;;;;;;3.47;1.90;;;3.80;99.90;;;;;;4839216;29;20471;-64
2023/02/24 08:56:11;;;;;;;4.30;1.70;;;3.80;99.90;;;;;;4837764;29;20484;-65
2023/02/24 08:58:45;;;;;;;5.77;2.07;;;3.80;99.90;;;;;;4841872;29;20984;-64
2023/02/24 09:01:22;;;;;;;3.00;1.53;;;3.80;99.90;;;;;;4844057;29;20856;-64
2023/02/24 09:03:55;;;;;;;5.77;2.10;;;3.80;99.90;;;;;;4844158;29;20474;-64
2023/02/24 09:06:33;;;;;;;5.53;1.60;;;3.80;99.90;;;;;;4849813;29;20474;-64
2023/02/24 09:11:54;;;;;;;3.37;1.60;;;3.80;99.90;;;;;;4844625;29;20502;-64
2023/02/24 09:14:25;;;;;;;7.13;1.83;;;3.90;99.90;;;;;;4833180;29;20523;-64
2023/02/24 09:17:04;;;;;;;5.07;2.10;;;3.90;99.90;;;;;;4833849;29;20496;-64
2023/02/24 09:22:39;;;;;;;5.03;1.63;;;4.00;99.90;;;;;;4834895;29;20483;-64
2023/02/24 09:25:20;;;;;;;4.73;2.07;;;4.00;99.90;;;;;;4844181;29;20481;-64
2023/02/24 09:27:54;;;;;;;4.73;1.90;;;3.90;99.90;;;;;;4834501;29;20556;-64
2023/02/24 09:30:38;;;;;;;2.97;1.70;;;3.90;99.90;;;;;;4833150;29;20530;-64
2023/02/24 09:33:17;;;;;;;2.73;2.10;;;3.80;99.90;;;;;;4842982;29;20525;-64
2023/02/24 09:35:49;;;;;;;4.70;1.90;;;3.90;99.90;;;;;;4854114;29;20494;-64
2023/02/24 09:38:20;;;;;;;4.17;1.80;;;3.90;99.90;;;;;;4840991;29;20482;-64
2023/02/24 09:40:52;;;;;;;4.90;2.00;;;4.00;99.90;;;;;;4842910;29;20980;-64
2023/02/24 09:43:23;;;;;;;3.93;2.10;;;3.90;99.90;;;;;;4843705;29;20509;-65
2023/02/24 09:45:59;;;;;;;2.17;1.70;;;4.00;99.90;;;;;;4844784;29;20836;-64
2023/02/24 09:48:42;;;;;;;3.83;1.90;;;4.10;99.90;;;;;;4854777;29;20517;-64
2023/02/24 09:51:21;;;;;;;2.40;1.57;;;4.10;99.90;;;;;;4861911;29;21018;-65
2023/02/24 09:53:53;;;;;;;1.67;1.30;;;4.00;99.90;;;;;;4858297;29;20534;-64
2023/02/24 09:56:29;;;;;;;5.90;1.80;;;4.10;99.90;;;;;;4848561;29;21003;-64
2023/02/24 09:59:09;;;;;;;4.57;1.73;;;4.10;99.90;;;;;;4852976;29;20497;-64
2023/02/24 10:01:43;;;;;;;3.30;1.63;;;4.20;99.90;;;;;;4860826;29;21023;-64
2023/02/24 10:04:26;;;;;;;3.07;1.80;;;4.20;99.90;;;;;;4845147;29;20479;-64
2023/02/24 10:07:02;;;;;;;3.77;2.27;;;4.10;99.90;;;;;;4852889;29;20490;-64
2023/02/24 10:09:35;;;;;;;4.03;2.20;;;4.20;99.90;;;;;;4853067;29;20565;-64
2023/02/24 10:12:15;;;;;;;3.70;2.40;;;4.10;99.90;;;;;;4855728;29;20487;-64
2023/02/24 10:14:51;;;;;;;2.83;2.40;;;4.20;99.90;;;;;;4824805;29;20488;-64
2023/02/24 10:17:29;;;;;;;4.43;2.50;;;4.20;99.90;;;;;;4826927;29;20479;-64
2023/02/24 10:20:01;;;;;;;5.23;2.60;;;4.20;99.90;;;;;;4858949;29;20996;-64
2023/02/24 10:22:49;;;;;;;4.63;2.47;;;4.20;99.90;;;;;;4855854;29;20480;-64
2023/02/24 10:25:25;;;;;;;4.30;2.60;;;4.20;99.90;;;;;;4844510;29;20571;-64
2023/02/24 10:28:03;;;;;;;5.17;2.67;;;4.20;99.90;;;;;;4844540;29;20483;-64
2023/02/24 10:30:41;;;;;;;5.10;3.03;;;4.30;99.90;;;;;;4860604;29;20958;-64
2023/02/24 10:33:36;;;;;;;4.33;3.07;;;4.20;99.90;;;;;;4860968;29;20473;-64
2023/02/24 10:36:10;;;;;;;5.43;2.87;;;4.30;99.90;;;;;;4847820;29;20886;-64
2023/02/24 10:38:44;;;;;;;6.83;3.10;;;4.40;99.90;;;;;;4848261;29;20499;-64
2023/02/24 10:41:16;;;;;;;3.37;3.07;;;4.50;99.90;;;;;;4842686;29;20483;-64
2023/02/24 10:43:54;;;;;;;4.73;3.53;;;4.50;99.90;;;;;;4842869;29;20826;-64
2023/02/24 10:46:32;;;;;;;5.83;3.40;;;4.50;99.90;;;;;;4845185;29;20726;-64
2023/02/24 10:49:15;;;;;;;7.00;3.73;;;4.50;99.90;;;;;;4834680;29;20476;-65
2023/02/24 10:51:51;;;;;;;5.83;3.50;;;4.50;99.90;;;;;;4855812;29;21012;-64
2023/02/24 10:54:43;;;;;;;4.70;2.87;;;4.50;99.90;;;;;;4844541;29;20661;-64
2023/02/24 10:57:21;;;;;;;4.53;3.50;;;4.50;99.90;;;;;;4833996;29;20833;-64
2023/02/24 11:03:08;;;;;;;6.67;3.70;;;4.60;99.90;;;;;;4841895;29;20487;-64
2023/02/24 11:06:05;;;;;;;6.93;3.80;;;4.70;99.90;;;;;;4844656;29;20481;-64
2023/02/24 11:08:53;;;;;;;4.87;3.23;;;4.70;99.90;;;;;;4854306;29;20486;-64
2023/02/24 11:11:28;;;;;;;4.20;3.40;;;4.70;99.90;;;;;;4860485;29;20891;-64
2023/02/24 11:19:36;;;;;;;7.30;4.00;;;4.70;99.90;;;;;;4860258;29;20248;-65
2023/02/24 11:22:07;;;;;;;5.63;4.40;;;4.70;99.90;;;;;;4828026;29;20480;-64
2023/02/24 11:24:38;;;;;;;7.60;4.87;;;4.70;99.90;;;;;;4853035;29;20581;-64
2023/02/24 11:27:10;;;;;;;6.27;3.90;;;4.70;99.90;;;;;;4823872;29;20472;-64
2023/02/24 11:30:13;;;;;;;7.30;4.50;;;4.80;99.90;;;;;;4847923;29;20249;-64
2023/02/24 11:33:03;;;;;;;6.37;4.53;;;4.80;99.90;;;;;;4844274;29;20506;-65
2023/02/24 11:35:39;;;;;;;7.27;4.23;;;4.80;99.90;;;;;;4842166;29;20491;-65
2023/02/24 11:38:26;;;;;;;9.10;4.97;;;4.90;99.90;;;;;;4849476;29;20471;-65
2023/02/24 11:41:04;;;;;;;7.30;5.33;;;5.00;99.90;;;;;;4855226;29;20982;-65
2023/02/24 11:43:36;;;;;;;9.80;4.90;;;5.20;99.90;;;;;;4827428;29;20496;-65
2023/02/24 11:46:10;;;;;;;9.40;4.87;;;5.20;99.90;;;;;;4827376;29;20476;-63
2023/02/24 11:48:43;;;;;;;8.73;4.77;;;5.20;99.90;;;;;;4831041;29;20691;-65
2023/02/24 11:51:16;;;;;;;7.87;4.80;;;5.40;99.90;;;;;;4829472;29;20576;-64
2023/02/24 11:53:49;;;;;;;6.83;4.63;;;5.40;99.90;;;;;;4857068;29;20698;-65
2023/02/24 11:56:23;;;;;;;9.47;5.07;;;5.50;99.90;;;;;;4858208;29;20486;-65
2023/02/24 11:58:59;;;;;;;9.40;4.87;;;5.70;99.90;;;;;;4853469;29;20522;-64
2023/02/24 12:01:31;;;;;;;11.37;5.30;;;5.70;99.90;;;;;;4842331;29;20733;-64
2023/02/24 12:04:10;;;;;;;10.37;5.40;;;5.90;99.90;;;;;;4845645;29;20771;-65
2023/02/24 12:06:44;;;;;;;13.07;5.77;;;6.00;99.90;;;;;;4852545;29;20242;-65
2023/02/24 12:09:16;;;;;;;11.77;5.27;;;5.90;99.90;;;;;;4861995;29;20241;-64
2023/02/24 12:11:53;;;;;;;12.63;5.47;;;5.90;99.90;;;;;;4841922;29;20222;-65
2023/02/24 12:14:33;;;;;;;12.97;5.80;;;5.80;99.90;;;;;;4836493;29;20246;-64
2023/02/24 12:17:10;;;;;;;14.70;5.80;;;5.80;99.90;;;;;;4836811;29;20242;-64
2023/02/24 12:19:57;;;;;;;10.43;5.47;;;5.90;99.90;;;;;;4835889;29;20235;-65
2023/02/24 12:22:33;;;;;;;9.77;5.10;;;6.00;99.90;;;;;;4839763;29;20595;-65
2023/02/24 12:25:01;;;;;;;14.30;5.27;;;6.00;99.90;;;;;;4852549;29;20322;-65
2023/02/24 12:27:42;;;;;;;9.47;5.63;;;6.10;99.90;;;;;;4844641;29;20231;-65
2023/02/24 12:30:32;;;;;;;13.30;5.97;;;6.20;99.90;;;;;;4844404;29;20232;-64
2023/02/24 12:33:16;;;;;;;12.40;5.27;;;6.20;99.90;;;;;;4836483;29;20231;-65
2023/02/24 12:35:48;;;;;;;15.10;5.93;;;6.30;99.90;;;;;;4835722;29;20696;-65
2023/02/24 12:38:34;;;;;;;12.73;5.20;;;6.60;99.90;;;;;;4838637;29;20239;-65
2023/02/24 12:41:16;;;;;;;14.27;6.40;;;6.70;99.90;;;;;;4856673;29;20239;-65
2023/02/24 12:43:53;;;;;;;15.70;5.50;;;6.90;99.90;;;;;;4863369;29;20278;-65
2023/02/24 12:46:26;;;;;;;14.50;5.77;;;7.00;99.90;;;;;;4863248;29;20237;-65
2023/02/24 12:49:25;;;;;;;12.00;5.20;;;7.10;99.90;;;;;;4863100;29;20679;-65
2023/02/24 12:52:08;;;;;;;16.27;5.53;;;7.10;99.90;;;;;;4863153;29;20253;-65
2023/02/24 12:54:42;;;;;;;15.13;5.30;;;7.00;99.90;;;;;;4855453;29;20672;-65
2023/02/24 12:57:18;;;;;;;13.47;5.30;;;7.00;99.90;;;;;;4826257;29;20242;-65
2023/02/24 12:59:47;;;;;;;16.90;5.33;;;7.10;99.90;;;;;;4828857;29;20251;-65
2023/02/24 13:02:28;;;;;;;16.00;6.10;;;7.10;99.90;;;;;;4833006;29;20239;-65
2023/02/24 13:05:02;;;;;;;12.47;5.13;;;7.10;99.90;;;;;;4841578;29;20698;-65
2023/02/24 13:07:43;;;;;;;11.40;4.67;;;7.00;99.90;;;;;;4841955;29;20240;-65
2023/02/24 13:10:24;;;;;;;12.70;4.33;;;6.80;99.90;;;;;;4841926;29;20243;-65
2023/02/24 13:13:02;;;;;;;14.20;4.77;;;6.80;99.90;;;;;;4841248;29;20246;-65
2023/02/24 13:15:31;;;;;;;16.17;4.87;;;6.70;99.90;;;;;;4840200;29;20235;-65
2023/02/24 13:18:00;;;;;;;15.90;4.47;;;6.60;99.90;;;;;;4841281;29;20239;-65
2023/02/24 13:20:31;;;;;;;11.37;3.90;;;6.60;99.90;;;;;;4841493;29;20314;-65
2023/02/24 13:23:03;;;;;;;14.27;4.47;;;6.60;99.90;;;;;;4841038;29;20235;-64
2023/02/24 13:25:35;;;;;;;14.33;4.33;;;6.70;99.90;;;;;;4841503;29;20227;-65
2023/02/24 13:28:07;;;;;;;14.23;4.13;;;6.70;99.90;;;;;;4839452;29;20632;-65
2023/02/24 13:30:38;;;;;;;19.30;4.60;;;6.90;99.90;;;;;;4838765;29;20258;-65
2023/02/24 13:33:22;;;;;;;16.57;3.67;;;6.90;99.90;;;;;;4839594;29;20262;-64
2023/02/24 13:36:05;;;;;;;14.40;3.07;;;6.90;99.90;;;;;;4840048;29;20230;-62
2023/02/24 13:38:38;;;;;;;12.07;2.17;;;6.90;99.90;;;;;;4839575;29;20703;-62
2023/02/24 13:41:17;;;;;;;10.10;2.10;;;6.70;99.90;;;;;;4839969;29;20244;-64
2023/02/24 13:43:54;;;;;;;11.73;2.43;;;6.60;99.90;;;;;;4840019;29;20215;-65
2023/02/24 13:46:22;;;;;;;14.53;2.10;;;6.50;99.90;;;;;;4839796;29;20253;-65
2023/02/24 13:49:03;;;;;;;10.73;1.93;;;6.50;99.90;;;;;;4841377;29;20232;-63
2023/02/24 13:51:52;;;;;;;17.90;2.40;;;6.50;99.90;;;;;;4838565;29;20233;-65